sensor_id;sensor_type;location;lat;lon;timestamp;temperature;humidity
64937;SHT30;51452;47.698;19.050;2022-11-20T00:01:17;3.47;70.79
64937;SHT30;51452;47.698;19.050;2022-11-20T00:03:44;3.53;70.79
64937;SHT30;51452;47.698;19.050;2022-11-20T00:06:15;3.61;70.99
64937;SHT30;51452;47.698;19.050;2022-11-20T00:08:41;3.73;70.91
64937;SHT30;51452;47.698;19.050;2022-11-20T00:11:08;3.77;71.06
64937;SHT30;51452;47.698;19.050;2022-11-20T00:13:37;3.67;71.73
64937;SHT30;51452;47.698;19.050;2022-11-20T00:16:05;3.57;72.24
64937;SHT30;51452;47.698;19.050;2022-11-20T00:18:32;3.44;72.71
64937;SHT30;51452;47.698;19.050;2022-11-20T00:21:20;3.41;72.74
64937;SHT30;51452;47.698;19.050;2022-11-20T00:23:46;3.51;72.59
64937;SHT30;51452;47.698;19.050;2022-11-20T00:26:15;3.64;72.38
64937;SHT30;51452;47.698;19.050;2022-11-20T00:28:42;3.66;71.95
64937;SHT30;51452;47.698;19.050;2022-11-20T00:31:13;3.70;71.71
64937;SHT30;51452;47.698;19.050;2022-11-20T00:33:39;3.64;71.85
64937;SHT30;51452;47.698;19.050;2022-11-20T00:36:07;3.63;72.09
64937;SHT30;51452;47.698;19.050;2022-11-20T00:38:39;3.58;72.27
64937;SHT30;51452;47.698;19.050;2022-11-20T00:41:07;3.57;72.21
64937;SHT30;51452;47.698;19.050;2022-11-20T00:43:34;3.58;72.58
64937;SHT30;51452;47.698;19.050;2022-11-20T00:46:13;3.54;72.90
64937;SHT30;51452;47.698;19.050;2022-11-20T00:48:39;3.56;73.07
64937;SHT30;51452;47.698;19.050;2022-11-20T00:51:05;3.67;73.04
64937;SHT30;51452;47.698;19.050;2022-11-20T00:53:30;3.70;73.13
64937;SHT30;51452;47.698;19.050;2022-11-20T00:56:01;3.78;72.74
64937;SHT30;51452;47.698;19.050;2022-11-20T00:58:31;3.78;72.14
64937;SHT30;51452;47.698;19.050;2022-11-20T01:03:40;3.75;72.64
64937;SHT30;51452;47.698;19.050;2022-11-20T01:06:19;3.77;72.41
64937;SHT30;51452;47.698;19.050;2022-11-20T01:08:46;3.73;72.50
64937;SHT30;51452;47.698;19.050;2022-11-20T01:11:14;3.74;72.57
64937;SHT30;51452;47.698;19.050;2022-11-20T01:13:40;3.78;72.32
64937;SHT30;51452;47.698;19.050;2022-11-20T01:16:08;3.79;72.26
64937;SHT30;51452;47.698;19.050;2022-11-20T01:18:41;3.70;72.24
64937;SHT30;51452;47.698;19.050;2022-11-20T01:21:10;3.68;72.00
64937;SHT30;51452;47.698;19.050;2022-11-20T01:23:40;3.71;71.94
64937;SHT30;51452;47.698;19.050;2022-11-20T01:26:11;3.66;71.94
64937;SHT30;51452;47.698;19.050;2022-11-20T01:28:37;3.61;72.34
64937;SHT30;51452;47.698;19.050;2022-11-20T01:31:15;3.50;72.73
64937;SHT30;51452;47.698;19.050;2022-11-20T01:33:42;3.46;73.20
64937;SHT30;51452;47.698;19.050;2022-11-20T01:36:09;3.43;73.33
64937;SHT30;51452;47.698;19.050;2022-11-20T01:38:35;3.40;73.14
64937;SHT30;51452;47.698;19.050;2022-11-20T01:41:00;3.22;74.19
64937;SHT30;51452;47.698;19.050;2022-11-20T01:43:26;3.27;74.03
64937;SHT30;51452;47.698;19.050;2022-11-20T01:46:15;3.36;73.39
64937;SHT30;51452;47.698;19.050;2022-11-20T01:51:23;3.36;73.71
64937;SHT30;51452;47.698;19.050;2022-11-20T01:53:52;3.26;74.24
64937;SHT30;51452;47.698;19.050;2022-11-20T01:56:19;3.24;74.50
64937;SHT30;51452;47.698;19.050;2022-11-20T01:58:51;3.24;74.45
64937;SHT30;51452;47.698;19.050;2022-11-20T02:01:18;3.22;74.73
64937;SHT30;51452;47.698;19.050;2022-11-20T02:03:46;3.22;74.68
64937;SHT30;51452;47.698;19.050;2022-11-20T02:06:17;3.27;74.50
64937;SHT30;51452;47.698;19.050;2022-11-20T02:08:44;3.36;74.37
64937;SHT30;51452;47.698;19.050;2022-11-20T02:11:09;3.38;74.36
64937;SHT30;51452;47.698;19.050;2022-11-20T02:13:41;3.50;73.87
64937;SHT30;51452;47.698;19.050;2022-11-20T02:16:30;3.61;73.72
64937;SHT30;51452;47.698;19.050;2022-11-20T02:18:59;3.74;73.88
64937;SHT30;51452;47.698;19.050;2022-11-20T02:21:38;3.82;73.83
64937;SHT30;51452;47.698;19.050;2022-11-20T02:24:14;3.89;73.89
64937;SHT30;51452;47.698;19.050;2022-11-20T02:27:04;3.94;73.62
64937;SHT30;51452;47.698;19.050;2022-11-20T02:29:34;3.94;73.33
64937;SHT30;51452;47.698;19.050;2022-11-20T02:32:00;3.97;73.20
64937;SHT30;51452;47.698;19.050;2022-11-20T02:34:27;4.03;73.29
64937;SHT30;51452;47.698;19.050;2022-11-20T02:36:52;4.05;73.37
64937;SHT30;51452;47.698;19.050;2022-11-20T02:39:19;4.02;73.27
64937;SHT30;51452;47.698;19.050;2022-11-20T02:41:45;4.05;73.18
64937;SHT30;51452;47.698;19.050;2022-11-20T02:44:11;4.08;73.18
64937;SHT30;51452;47.698;19.050;2022-11-20T02:46:37;3.99;72.90
64937;SHT30;51452;47.698;19.050;2022-11-20T02:49:03;3.99;73.03
64937;SHT30;51452;47.698;19.050;2022-11-20T02:51:32;3.99;72.95
64937;SHT30;51452;47.698;19.050;2022-11-20T02:54:06;3.99;72.93
64937;SHT30;51452;47.698;19.050;2022-11-20T02:56:31;4.02;72.76
64937;SHT30;51452;47.698;19.050;2022-11-20T02:58:56;4.05;72.83
64937;SHT30;51452;47.698;19.050;2022-11-20T03:01:22;4.06;72.88
64937;SHT30;51452;47.698;19.050;2022-11-20T03:03:47;4.06;73.28
64937;SHT30;51452;47.698;19.050;2022-11-20T03:06:14;4.18;73.15
64937;SHT30;51452;47.698;19.050;2022-11-20T03:08:40;4.23;73.20
64937;SHT30;51452;47.698;19.050;2022-11-20T03:11:07;4.23;72.98
64937;SHT30;51452;47.698;19.050;2022-11-20T03:13:33;4.25;72.96
64937;SHT30;51452;47.698;19.050;2022-11-20T03:16:08;4.22;72.42
64937;SHT30;51452;47.698;19.050;2022-11-20T03:18:33;4.26;72.51
64937;SHT30;51452;47.698;19.050;2022-11-20T03:20:59;4.22;72.32
64937;SHT30;51452;47.698;19.050;2022-11-20T03:23:25;4.23;72.57
64937;SHT30;51452;47.698;19.050;2022-11-20T03:25:50;4.25;72.43
64937;SHT30;51452;47.698;19.050;2022-11-20T03:28:15;4.26;72.79
64937;SHT30;51452;47.698;19.050;2022-11-20T03:30:41;4.29;73.23
64937;SHT30;51452;47.698;19.050;2022-11-20T03:33:06;4.29;73.18
64937;SHT30;51452;47.698;19.050;2022-11-20T03:35:31;4.32;73.02
64937;SHT30;51452;47.698;19.050;2022-11-20T03:37:57;4.29;72.87
64937;SHT30;51452;47.698;19.050;2022-11-20T03:40:25;4.33;72.22
64937;SHT30;51452;47.698;19.050;2022-11-20T03:42:51;4.20;72.71
64937;SHT30;51452;47.698;19.050;2022-11-20T03:45:17;4.23;72.88
64937;SHT30;51452;47.698;19.050;2022-11-20T03:47:44;4.26;72.70
64937;SHT30;51452;47.698;19.050;2022-11-20T03:50:11;4.30;72.94
64937;SHT30;51452;47.698;19.050;2022-11-20T03:52:38;4.25;72.60
64937;SHT30;51452;47.698;19.050;2022-11-20T03:55:04;4.22;72.66
64937;SHT30;51452;47.698;19.050;2022-11-20T03:57:30;4.29;73.13
64937;SHT30;51452;47.698;19.050;2022-11-20T03:59:55;4.35;73.24
64937;SHT30;51452;47.698;19.050;2022-11-20T04:02:21;4.39;73.21
64937;SHT30;51452;47.698;19.050;2022-11-20T04:04:46;4.26;72.88
64937;SHT30;51452;47.698;19.050;2022-11-20T04:07:11;4.28;72.78
64937;SHT30;51452;47.698;19.050;2022-11-20T04:09:37;4.23;73.20
64937;SHT30;51452;47.698;19.050;2022-11-20T04:12:02;4.29;73.30
64937;SHT30;51452;47.698;19.050;2022-11-20T04:14:27;4.33;73.44
64937;SHT30;51452;47.698;19.050;2022-11-20T04:16:53;4.35;73.02
64937;SHT30;51452;47.698;19.050;2022-11-20T04:19:18;4.30;72.79
64937;SHT30;51452;47.698;19.050;2022-11-20T04:21:44;4.30;72.93
64937;SHT30;51452;47.698;19.050;2022-11-20T04:24:09;4.20;72.59
64937;SHT30;51452;47.698;19.050;2022-11-20T04:26:41;4.16;72.64
64937;SHT30;51452;47.698;19.050;2022-11-20T04:29:10;4.19;72.70
64937;SHT30;51452;47.698;19.050;2022-11-20T04:31:36;4.22;72.81
64937;SHT30;51452;47.698;19.050;2022-11-20T04:34:03;4.22;73.05
64937;SHT30;51452;47.698;19.050;2022-11-20T04:36:29;4.33;73.00
64937;SHT30;51452;47.698;19.050;2022-11-20T04:38:57;4.30;73.02
64937;SHT30;51452;47.698;19.050;2022-11-20T04:41:27;4.35;72.78
64937;SHT30;51452;47.698;19.050;2022-11-20T04:43:55;4.30;72.44
64937;SHT30;51452;47.698;19.050;2022-11-20T04:46:32;4.29;72.22
64937;SHT30;51452;47.698;19.050;2022-11-20T04:48:58;4.30;72.87
64937;SHT30;51452;47.698;19.050;2022-11-20T04:51:24;4.33;73.18
64937;SHT30;51452;47.698;19.050;2022-11-20T04:53:49;4.39;73.29
64937;SHT30;51452;47.698;19.050;2022-11-20T04:56:15;4.46;73.16
64937;SHT30;51452;47.698;19.050;2022-11-20T04:58:41;4.43;73.18
64937;SHT30;51452;47.698;19.050;2022-11-20T05:01:18;4.40;72.75
64937;SHT30;51452;47.698;19.050;2022-11-20T05:03:44;4.38;72.67
64937;SHT30;51452;47.698;19.050;2022-11-20T05:06:12;4.40;72.48
64937;SHT30;51452;47.698;19.050;2022-11-20T05:08:38;4.26;72.87
64937;SHT30;51452;47.698;19.050;2022-11-20T05:11:12;4.33;72.67
64937;SHT30;51452;47.698;19.050;2022-11-20T05:13:41;4.33;72.29
64937;SHT30;51452;47.698;19.050;2022-11-20T05:16:08;4.36;72.31
64937;SHT30;51452;47.698;19.050;2022-11-20T05:18:37;4.38;72.33
64937;SHT30;51452;47.698;19.050;2022-11-20T05:21:03;4.29;72.81
64937;SHT30;51452;47.698;19.050;2022-11-20T05:23:30;4.29;72.85
64937;SHT30;51452;47.698;19.050;2022-11-20T05:25:57;4.32;72.54
64937;SHT30;51452;47.698;19.050;2022-11-20T05:28:23;4.36;73.16
64937;SHT30;51452;47.698;19.050;2022-11-20T05:30:48;4.45;73.11
64937;SHT30;51452;47.698;19.050;2022-11-20T05:33:14;4.42;73.33
64937;SHT30;51452;47.698;19.050;2022-11-20T05:35:40;4.45;73.30
64937;SHT30;51452;47.698;19.050;2022-11-20T05:38:05;4.46;73.23
64937;SHT30;51452;47.698;19.050;2022-11-20T05:40:31;4.43;73.38
64937;SHT30;51452;47.698;19.050;2022-11-20T05:42:56;4.49;73.24
64937;SHT30;51452;47.698;19.050;2022-11-20T05:45:21;4.52;73.22
64937;SHT30;51452;47.698;19.050;2022-11-20T05:47:47;4.52;73.03
64937;SHT30;51452;47.698;19.050;2022-11-20T05:50:13;4.39;73.24
64937;SHT30;51452;47.698;19.050;2022-11-20T05:52:39;4.39;72.68
64937;SHT30;51452;47.698;19.050;2022-11-20T05:55:05;4.42;72.42
64937;SHT30;51452;47.698;19.050;2022-11-20T05:57:31;4.43;72.20
64937;SHT30;51452;47.698;19.050;2022-11-20T05:59:56;4.49;72.06
64937;SHT30;51452;47.698;19.050;2022-11-20T06:02:22;4.50;71.81
64937;SHT30;51452;47.698;19.050;2022-11-20T06:04:47;4.49;72.19
64937;SHT30;51452;47.698;19.050;2022-11-20T06:07:12;4.53;72.62
64937;SHT30;51452;47.698;19.050;2022-11-20T06:09:38;4.63;72.57
64937;SHT30;51452;47.698;19.050;2022-11-20T06:12:03;4.63;72.67
64937;SHT30;51452;47.698;19.050;2022-11-20T06:14:29;4.61;72.62
64937;SHT30;51452;47.698;19.050;2022-11-20T06:16:54;4.64;72.46
64937;SHT30;51452;47.698;19.050;2022-11-20T06:19:20;4.66;72.38
64937;SHT30;51452;47.698;19.050;2022-11-20T06:21:47;4.70;72.85
64937;SHT30;51452;47.698;19.050;2022-11-20T06:24:13;4.74;72.94
64937;SHT30;51452;47.698;19.050;2022-11-20T06:26:38;4.74;72.38
64937;SHT30;51452;47.698;19.050;2022-11-20T06:29:03;4.76;72.10
64937;SHT30;51452;47.698;19.050;2022-11-20T06:31:29;4.77;72.61
64937;SHT30;51452;47.698;19.050;2022-11-20T06:33:55;4.83;73.03
64937;SHT30;51452;47.698;19.050;2022-11-20T06:36:22;4.87;73.43
64937;SHT30;51452;47.698;19.050;2022-11-20T06:38:48;4.91;73.18
64937;SHT30;51452;47.698;19.050;2022-11-20T06:41:16;4.90;73.43
64937;SHT30;51452;47.698;19.050;2022-11-20T06:43:42;4.81;73.30
64937;SHT30;51452;47.698;19.050;2022-11-20T06:46:09;4.85;73.02
64937;SHT30;51452;47.698;19.050;2022-11-20T06:48:38;4.85;72.57
64937;SHT30;51452;47.698;19.050;2022-11-20T06:51:05;4.91;72.19
64937;SHT30;51452;47.698;19.050;2022-11-20T06:53:31;4.91;71.81
64937;SHT30;51452;47.698;19.050;2022-11-20T06:55:57;4.92;71.43
64937;SHT30;51452;47.698;19.050;2022-11-20T06:58:23;4.84;71.49
64937;SHT30;51452;47.698;19.050;2022-11-20T07:00:48;4.87;71.64
64937;SHT30;51452;47.698;19.050;2022-11-20T07:03:14;4.88;71.92
64937;SHT30;51452;47.698;19.050;2022-11-20T07:05:39;4.87;71.63
64937;SHT30;51452;47.698;19.050;2022-11-20T07:08:05;4.91;72.22
64937;SHT30;51452;47.698;19.050;2022-11-20T07:10:31;5.05;72.64
64937;SHT30;51452;47.698;19.050;2022-11-20T07:12:57;5.09;72.69
64937;SHT30;51452;47.698;19.050;2022-11-20T07:15:23;5.15;72.69
64937;SHT30;51452;47.698;19.050;2022-11-20T07:17:49;5.24;72.86
64937;SHT30;51452;47.698;19.050;2022-11-20T07:20:32;5.24;72.68
64937;SHT30;51452;47.698;19.050;2022-11-20T07:22:58;5.31;72.67
64937;SHT30;51452;47.698;19.050;2022-11-20T07:25:27;5.34;72.52
64937;SHT30;51452;47.698;19.050;2022-11-20T07:27:57;5.35;72.50
64937;SHT30;51452;47.698;19.050;2022-11-20T07:30:25;5.25;72.76
64937;SHT30;51452;47.698;19.050;2022-11-20T07:32:51;5.36;72.15
64937;SHT30;51452;47.698;19.050;2022-11-20T07:35:16;5.34;72.25
64937;SHT30;51452;47.698;19.050;2022-11-20T07:37:42;5.35;72.21
64937;SHT30;51452;47.698;19.050;2022-11-20T07:40:07;5.39;72.20
64937;SHT30;51452;47.698;19.050;2022-11-20T07:42:33;5.42;72.43
64937;SHT30;51452;47.698;19.050;2022-11-20T07:44:58;5.49;72.13
64937;SHT30;51452;47.698;19.050;2022-11-20T07:47:23;5.39;72.38
64937;SHT30;51452;47.698;19.050;2022-11-20T07:49:48;5.43;72.53
64937;SHT30;51452;47.698;19.050;2022-11-20T07:52:14;5.52;72.11
64937;SHT30;51452;47.698;19.050;2022-11-20T07:54:39;5.49;71.81
64937;SHT30;51452;47.698;19.050;2022-11-20T07:57:04;5.50;71.97
64937;SHT30;51452;47.698;19.050;2022-11-20T07:59:30;5.53;72.13
64937;SHT30;51452;47.698;19.050;2022-11-20T08:01:55;5.60;72.14
64937;SHT30;51452;47.698;19.050;2022-11-20T08:04:20;5.62;71.73
64937;SHT30;51452;47.698;19.050;2022-11-20T08:06:46;5.65;71.61
64937;SHT30;51452;47.698;19.050;2022-11-20T08:09:12;5.63;71.59
64937;SHT30;51452;47.698;19.050;2022-11-20T08:11:37;5.70;71.43
64937;SHT30;51452;47.698;19.050;2022-11-20T08:14:21;5.67;71.61
64937;SHT30;51452;47.698;19.050;2022-11-20T08:16:47;5.67;71.42
64937;SHT30;51452;47.698;19.050;2022-11-20T08:19:15;5.59;71.68
64937;SHT30;51452;47.698;19.050;2022-11-20T08:21:41;5.59;71.27
64937;SHT30;51452;47.698;19.050;2022-11-20T08:24:07;5.63;71.47
64937;SHT30;51452;47.698;19.050;2022-11-20T08:26:34;5.59;71.36
64937;SHT30;51452;47.698;19.050;2022-11-20T08:29:01;5.65;71.22
64937;SHT30;51452;47.698;19.050;2022-11-20T08:31:27;5.66;71.35
64937;SHT30;51452;47.698;19.050;2022-11-20T08:33:53;5.74;70.88
64937;SHT30;51452;47.698;19.050;2022-11-20T08:36:20;5.80;71.00
64937;SHT30;51452;47.698;19.050;2022-11-20T08:38:53;5.81;70.48
64937;SHT30;51452;47.698;19.050;2022-11-20T08:41:19;5.87;70.21
64937;SHT30;51452;47.698;19.050;2022-11-20T08:43:58;5.87;69.49
64937;SHT30;51452;47.698;19.050;2022-11-20T08:46:25;5.91;70.14
64937;SHT30;51452;47.698;19.050;2022-11-20T08:48:51;5.96;70.84
64937;SHT30;51452;47.698;19.050;2022-11-20T08:51:17;6.01;70.81
64937;SHT30;51452;47.698;19.050;2022-11-20T08:53:42;6.06;70.81
64937;SHT30;51452;47.698;19.050;2022-11-20T08:56:08;6.13;70.40
64937;SHT30;51452;47.698;19.050;2022-11-20T08:58:34;6.18;70.46
64937;SHT30;51452;47.698;19.050;2022-11-20T09:01:00;6.24;70.55
64937;SHT30;51452;47.698;19.050;2022-11-20T09:03:25;6.22;70.09
64937;SHT30;51452;47.698;19.050;2022-11-20T09:05:57;6.21;70.01
64937;SHT30;51452;47.698;19.050;2022-11-20T09:08:23;6.27;70.25
64937;SHT30;51452;47.698;19.050;2022-11-20T09:10:51;6.28;70.23
64937;SHT30;51452;47.698;19.050;2022-11-20T09:13:17;6.28;70.20
64937;SHT30;51452;47.698;19.050;2022-11-20T09:15:42;6.31;69.84
64937;SHT30;51452;47.698;19.050;2022-11-20T09:18:07;6.37;70.07
64937;SHT30;51452;47.698;19.050;2022-11-20T09:20:33;6.13;70.01
64937;SHT30;51452;47.698;19.050;2022-11-20T09:22:58;6.01;70.25
64937;SHT30;51452;47.698;19.050;2022-11-20T09:25:24;6.01;70.15
64937;SHT30;51452;47.698;19.050;2022-11-20T09:27:56;6.16;70.42
64937;SHT30;51452;47.698;19.050;2022-11-20T09:30:22;6.25;70.34
64937;SHT30;51452;47.698;19.050;2022-11-20T09:32:47;6.37;69.98
64937;SHT30;51452;47.698;19.050;2022-11-20T09:35:13;6.44;69.85
64937;SHT30;51452;47.698;19.050;2022-11-20T09:37:39;6.53;69.37
64937;SHT30;51452;47.698;19.050;2022-11-20T09:40:06;6.59;69.09
64937;SHT30;51452;47.698;19.050;2022-11-20T09:42:45;6.64;68.55
64937;SHT30;51452;47.698;19.050;2022-11-20T09:45:23;6.64;68.78
64937;SHT30;51452;47.698;19.050;2022-11-20T09:56:28;6.75;69.18
64937;SHT30;51452;47.698;19.050;2022-11-20T09:58:57;6.85;68.89
64937;SHT30;51452;47.698;19.050;2022-11-20T10:01:26;6.96;68.87
64937;SHT30;51452;47.698;19.050;2022-11-20T10:04:02;7.00;68.62
64937;SHT30;51452;47.698;19.050;2022-11-20T10:06:44;7.03;68.95
64937;SHT30;51452;47.698;19.050;2022-11-20T10:11:48;7.23;68.67
64937;SHT30;51452;47.698;19.050;2022-11-20T10:17:16;7.20;68.00
64937;SHT30;51452;47.698;19.050;2022-11-20T10:22:54;7.14;67.86
64937;SHT30;51452;47.698;19.050;2022-11-20T10:25:38;7.16;67.64
64937;SHT30;51452;47.698;19.050;2022-11-20T10:30:44;7.35;68.42
64937;SHT30;51452;47.698;19.050;2022-11-20T10:33:17;7.43;68.11
64937;SHT30;51452;47.698;19.050;2022-11-20T10:38:43;7.57;66.89
64937;SHT30;51452;47.698;19.050;2022-11-20T10:41:16;7.57;67.73
64937;SHT30;51452;47.698;19.050;2022-11-20T10:43:54;7.43;67.98
64937;SHT30;51452;47.698;19.050;2022-11-20T10:46:24;7.44;67.24
64937;SHT30;51452;47.698;19.050;2022-11-20T10:48:50;7.47;67.31
64937;SHT30;51452;47.698;19.050;2022-11-20T10:56:47;7.71;64.48
64937;SHT30;51452;47.698;19.050;2022-11-20T11:01:56;7.74;65.99
64937;SHT30;51452;47.698;19.050;2022-11-20T11:06:58;7.67;66.11
64937;SHT30;51452;47.698;19.050;2022-11-20T11:09:36;7.67;66.06
64937;SHT30;51452;47.698;19.050;2022-11-20T11:12:06;7.65;66.30
64937;SHT30;51452;47.698;19.050;2022-11-20T11:14:50;7.35;64.62
64937;SHT30;51452;47.698;19.050;2022-11-20T11:17:28;7.28;65.88
64937;SHT30;51452;47.698;19.050;2022-11-20T11:22:58;7.10;66.73
64937;SHT30;51452;47.698;19.050;2022-11-20T11:28:03;6.82;68.02
64937;SHT30;51452;47.698;19.050;2022-11-20T11:30:40;6.76;68.56
64937;SHT30;51452;47.698;19.050;2022-11-20T11:33:17;6.69;68.77
64937;SHT30;51452;47.698;19.050;2022-11-20T11:35:45;6.79;68.96
64937;SHT30;51452;47.698;19.050;2022-11-20T11:38:16;6.78;68.68
64937;SHT30;51452;47.698;19.050;2022-11-20T11:40:43;6.73;68.54
64937;SHT30;51452;47.698;19.050;2022-11-20T11:43:22;6.76;68.41
64937;SHT30;51452;47.698;19.050;2022-11-20T11:46:24;6.72;68.69
64937;SHT30;51452;47.698;19.050;2022-11-20T11:52:18;6.75;68.52
64937;SHT30;51452;47.698;19.050;2022-11-20T11:54:24;6.86;68.49
64937;SHT30;51452;47.698;19.050;2022-11-20T11:56:51;6.92;68.44
64937;SHT30;51452;47.698;19.050;2022-11-20T12:05:03;7.07;67.52
64937;SHT30;51452;47.698;19.050;2022-11-20T12:07:56;7.13;67.61
64937;SHT30;51452;47.698;19.050;2022-11-20T12:13:03;7.14;67.63
64937;SHT30;51452;47.698;19.050;2022-11-20T12:15:31;7.24;67.39
64937;SHT30;51452;47.698;19.050;2022-11-20T12:17:58;7.26;67.82
64937;SHT30;51452;47.698;19.050;2022-11-20T12:20:28;7.26;67.53
64937;SHT30;51452;47.698;19.050;2022-11-20T12:26:03;7.27;67.69
64937;SHT30;51452;47.698;19.050;2022-11-20T12:28:47;7.28;67.91
64937;SHT30;51452;47.698;19.050;2022-11-20T12:34:18;7.21;67.83
64937;SHT30;51452;47.698;19.050;2022-11-20T12:37:10;7.28;67.59
64937;SHT30;51452;47.698;19.050;2022-11-20T12:39:42;7.09;67.99
64937;SHT30;51452;47.698;19.050;2022-11-20T12:42:31;7.24;67.50
64937;SHT30;51452;47.698;19.050;2022-11-20T12:51:17;7.21;67.26
64937;SHT30;51452;47.698;19.050;2022-11-20T13:01:38;7.31;67.40
64937;SHT30;51452;47.698;19.050;2022-11-20T13:06:38;7.21;67.30
64937;SHT30;51452;47.698;19.050;2022-11-20T13:09:08;7.21;67.81
64937;SHT30;51452;47.698;19.050;2022-11-20T13:12:00;7.20;67.71
64937;SHT30;51452;47.698;19.050;2022-11-20T13:17:36;7.26;67.18
64937;SHT30;51452;47.698;19.050;2022-11-20T13:20:06;7.34;67.56
64937;SHT30;51452;47.698;19.050;2022-11-20T13:22:54;7.24;67.68
64937;SHT30;51452;47.698;19.050;2022-11-20T13:25:32;7.20;67.29
64937;SHT30;51452;47.698;19.050;2022-11-20T13:27:59;7.27;67.24
64937;SHT30;51452;47.698;19.050;2022-11-20T13:30:27;7.24;67.21
64937;SHT30;51452;47.698;19.050;2022-11-20T13:32:56;7.14;67.84
64937;SHT30;51452;47.698;19.050;2022-11-20T13:35:29;7.14;67.71
64937;SHT30;51452;47.698;19.050;2022-11-20T13:40:34;7.14;67.86
64937;SHT30;51452;47.698;19.050;2022-11-20T13:43:22;7.02;67.75
64937;SHT30;51452;47.698;19.050;2022-11-20T13:46:05;7.00;67.80
64937;SHT30;51452;47.698;19.050;2022-11-20T13:48:39;7.09;67.50
64937;SHT30;51452;47.698;19.050;2022-11-20T13:56:43;6.99;68.02
64937;SHT30;51452;47.698;19.050;2022-11-20T13:59:46;6.92;68.09
64937;SHT30;51452;47.698;19.050;2022-11-20T14:02:16;6.90;68.31
64937;SHT30;51452;47.698;19.050;2022-11-20T14:04:45;6.99;68.38
64937;SHT30;51452;47.698;19.050;2022-11-20T14:07:12;6.99;68.50
64937;SHT30;51452;47.698;19.050;2022-11-20T14:09:38;7.13;68.09
64937;SHT30;51452;47.698;19.050;2022-11-20T14:12:04;7.19;67.76
64937;SHT30;51452;47.698;19.050;2022-11-20T14:14:32;7.28;67.83
64937;SHT30;51452;47.698;19.050;2022-11-20T14:17:19;7.31;67.84
64937;SHT30;51452;47.698;19.050;2022-11-20T14:19:47;7.37;67.67
64937;SHT30;51452;47.698;19.050;2022-11-20T14:22:20;7.40;67.66
64937;SHT30;51452;47.698;19.050;2022-11-20T14:25:00;7.50;67.73
64937;SHT30;51452;47.698;19.050;2022-11-20T14:27:26;7.48;67.51
64937;SHT30;51452;47.698;19.050;2022-11-20T14:29:52;7.51;68.08
64937;SHT30;51452;47.698;19.050;2022-11-20T14:32:19;7.50;67.42
64937;SHT30;51452;47.698;19.050;2022-11-20T14:34:47;7.48;67.00
64937;SHT30;51452;47.698;19.050;2022-11-20T14:37:19;7.38;67.12
64937;SHT30;51452;47.698;19.050;2022-11-20T14:39:51;7.33;67.32
64937;SHT30;51452;47.698;19.050;2022-11-20T14:42:21;7.31;67.01
64937;SHT30;51452;47.698;19.050;2022-11-20T14:44:48;7.33;67.07
64937;SHT30;51452;47.698;19.050;2022-11-20T14:47:18;7.24;67.19
64937;SHT30;51452;47.698;19.050;2022-11-20T14:49:44;7.19;67.69
64937;SHT30;51452;47.698;19.050;2022-11-20T14:54:50;7.06;68.28
64937;SHT30;51452;47.698;19.050;2022-11-20T14:57:27;7.02;68.57
64937;SHT30;51452;47.698;19.050;2022-11-20T15:00:32;6.96;68.70
64937;SHT30;51452;47.698;19.050;2022-11-20T15:02:58;6.92;68.54
64937;SHT30;51452;47.698;19.050;2022-11-20T15:05:43;6.79;68.71
64937;SHT30;51452;47.698;19.050;2022-11-20T15:08:10;6.65;69.30
64937;SHT30;51452;47.698;19.050;2022-11-20T15:10:36;6.56;69.34
64937;SHT30;51452;47.698;19.050;2022-11-20T15:13:05;6.46;69.56
64937;SHT30;51452;47.698;19.050;2022-11-20T15:15:51;6.35;69.79
64937;SHT30;51452;47.698;19.050;2022-11-20T15:18:31;6.30;69.82
64937;SHT30;51452;47.698;19.050;2022-11-20T15:20:59;6.25;70.16
64937;SHT30;51452;47.698;19.050;2022-11-20T15:23:26;6.22;70.10
64937;SHT30;51452;47.698;19.050;2022-11-20T15:25:52;6.17;70.29
64937;SHT30;51452;47.698;19.050;2022-11-20T15:28:21;6.11;70.05
64937;SHT30;51452;47.698;19.050;2022-11-20T15:30:48;6.04;70.52
64937;SHT30;51452;47.698;19.050;2022-11-20T15:33:15;6.01;71.16
64937;SHT30;51452;47.698;19.050;2022-11-20T15:35:40;6.03;71.46
64937;SHT30;51452;47.698;19.050;2022-11-20T15:38:06;5.99;71.33
64937;SHT30;51452;47.698;19.050;2022-11-20T15:40:31;6.00;71.42
64937;SHT30;51452;47.698;19.050;2022-11-20T15:42:57;6.04;71.41
64937;SHT30;51452;47.698;19.050;2022-11-20T15:45:31;6.07;71.64
64937;SHT30;51452;47.698;19.050;2022-11-20T15:47:59;6.10;71.56
64937;SHT30;51452;47.698;19.050;2022-11-20T15:50:29;6.13;71.18
64937;SHT30;51452;47.698;19.050;2022-11-20T15:52:55;6.16;71.23
64937;SHT30;51452;47.698;19.050;2022-11-20T15:55:20;6.14;71.32
64937;SHT30;51452;47.698;19.050;2022-11-20T15:57:45;6.14;71.44
64937;SHT30;51452;47.698;19.050;2022-11-20T16:00:11;6.11;71.59
64937;SHT30;51452;47.698;19.050;2022-11-20T16:02:37;6.11;71.56
64937;SHT30;51452;47.698;19.050;2022-11-20T16:05:03;6.07;71.50
64937;SHT30;51452;47.698;19.050;2022-11-20T16:07:28;6.06;71.61
64937;SHT30;51452;47.698;19.050;2022-11-20T16:09:53;6.03;71.33
64937;SHT30;51452;47.698;19.050;2022-11-20T16:12:20;6.06;71.33
64937;SHT30;51452;47.698;19.050;2022-11-20T16:15:21;6.06;71.37
64937;SHT30;51452;47.698;19.050;2022-11-20T16:18:09;5.94;71.38
64937;SHT30;51452;47.698;19.050;2022-11-20T16:20:35;5.89;71.98
64937;SHT30;51452;47.698;19.050;2022-11-20T16:23:00;5.86;72.35
64937;SHT30;51452;47.698;19.050;2022-11-20T16:25:27;5.79;72.36
64937;SHT30;51452;47.698;19.050;2022-11-20T16:27:52;5.73;72.06
64937;SHT30;51452;47.698;19.050;2022-11-20T16:30:17;5.71;72.16
64937;SHT30;51452;47.698;19.050;2022-11-20T16:32:43;5.63;72.24
64937;SHT30;51452;47.698;19.050;2022-11-20T16:35:08;5.53;72.44
64937;SHT30;51452;47.698;19.050;2022-11-20T16:37:33;5.53;72.76
64937;SHT30;51452;47.698;19.050;2022-11-20T16:39:59;5.48;72.93
64937;SHT30;51452;47.698;19.050;2022-11-20T16:42:24;5.48;72.30
64937;SHT30;51452;47.698;19.050;2022-11-20T16:44:50;5.43;72.18
64937;SHT30;51452;47.698;19.050;2022-11-20T16:47:15;5.36;72.16
64937;SHT30;51452;47.698;19.050;2022-11-20T16:49:40;5.38;73.01
64937;SHT30;51452;47.698;19.050;2022-11-20T16:52:07;5.36;72.96
64937;SHT30;51452;47.698;19.050;2022-11-20T16:54:33;5.38;72.35
64937;SHT30;51452;47.698;19.050;2022-11-20T16:56:58;5.35;73.18
64937;SHT30;51452;47.698;19.050;2022-11-20T16:59:23;5.40;73.18
64937;SHT30;51452;47.698;19.050;2022-11-20T17:01:49;5.35;73.90
64937;SHT30;51452;47.698;19.050;2022-11-20T17:04:15;5.39;73.40
64937;SHT30;51452;47.698;19.050;2022-11-20T17:06:42;5.46;72.89
64937;SHT30;51452;47.698;19.050;2022-11-20T17:09:12;5.45;72.89
64937;SHT30;51452;47.698;19.050;2022-11-20T17:11:38;5.39;72.10
64937;SHT30;51452;47.698;19.050;2022-11-20T17:14:04;5.36;72.08